Time;durP1;ratioP1;P1;durP2;ratioP2;P2;SDS_P1;SDS_P2;PMS_P1;PMS_P2;Temp;Humidity;BMP_temperature;BMP_pressure;BME280_temperature;BME280_humidity;BME280_pressure;Samples;Min_cycle;Max_cycle;Signal;HPM_P1;HPM_P2
2022/04/09 00:02:14;;;;;;;6.17;2.17;;;6.30;99.90;;;;;;4929166;29;20212;-79
2022/04/09 00:04:42;;;;;;;6.33;2.33;;;6.40;99.90;;;;;;4929735;29;20209;-78
2022/04/09 00:07:09;;;;;;;9.03;2.73;;;6.20;99.90;;;;;;4932485;29;20726;-78
2022/04/09 00:09:38;;;;;;;6.40;2.27;;;6.20;99.90;;;;;;4933803;29;20239;-78
2022/04/09 00:12:08;;;;;;;5.57;2.50;;;6.30;99.90;;;;;;4927668;29;20685;-78
2022/04/09 00:14:41;;;;;;;5.90;2.10;;;6.20;99.90;;;;;;4930379;29;20215;-79
2022/04/09 00:17:09;;;;;;;6.27;2.53;;;6.30;99.90;;;;;;4924482;29;20225;-80
2022/04/09 00:19:36;;;;;;;4.60;2.33;;;6.40;99.90;;;;;;4934963;29;20691;-79
2022/04/09 00:22:04;;;;;;;6.63;2.47;;;6.30;99.90;;;;;;4933864;29;20212;-78
2022/04/09 00:24:52;;;;;;;8.83;2.43;;;6.30;99.90;;;;;;4932301;29;20205;-79
2022/04/09 00:27:20;;;;;;;5.20;2.47;;;6.30;99.90;;;;;;4932613;29;20228;-79
2022/04/09 00:29:48;;;;;;;7.77;2.87;;;6.30;99.90;;;;;;4933013;29;20223;-79
2022/04/09 00:32:15;;;;;;;7.87;3.20;;;6.30;99.90;;;;;;4931590;29;20206;-79
2022/04/09 00:34:43;;;;;;;5.83;2.47;;;6.30;99.90;;;;;;4944778;29;20223;-79
2022/04/09 00:37:10;;;;;;;6.10;3.17;;;6.40;99.90;;;;;;4932103;29;20694;-79
2022/04/09 00:39:52;;;;;;;11.83;3.33;;;6.30;99.90;;;;;;4931893;29;20204;-79
2022/04/09 00:42:20;;;;;;;6.63;2.63;;;6.30;99.90;;;;;;4928638;29;20565;-79
2022/04/09 00:44:48;;;;;;;8.93;3.17;;;6.30;99.90;;;;;;4931547;29;20215;-79
2022/04/09 00:47:15;;;;;;;9.53;3.30;;;6.40;99.90;;;;;;4932627;29;20232;-79
2022/04/09 00:49:42;;;;;;;7.43;2.70;;;6.20;99.90;;;;;;4931263;29;20236;-79
2022/04/09 00:52:10;;;;;;;9.80;3.70;;;6.20;99.90;;;;;;4923367;29;20668;-78
2022/04/09 00:54:41;;;;;;;10.17;3.50;;;6.10;99.90;;;;;;4931054;29;20203;-79
2022/04/09 00:57:10;;;;;;;8.20;3.33;;;6.10;99.90;;;;;;4930122;29;20223;-78
2022/04/09 00:59:43;;;;;;;8.30;3.23;;;6.20;99.90;;;;;;4933699;29;20215;-78
2022/04/09 01:02:14;;;;;;;10.47;3.67;;;6.10;99.90;;;;;;4930222;29;20585;-78
2022/04/09 01:04:43;;;;;;;9.63;3.93;;;6.10;99.90;;;;;;4927809;29;20200;-79
2022/04/09 01:07:11;;;;;;;12.47;3.60;;;6.20;99.90;;;;;;4928218;29;20229;-79
2022/04/09 01:09:38;;;;;;;10.70;4.10;;;6.30;99.90;;;;;;4925752;29;20581;-79
2022/04/09 01:12:06;;;;;;;8.23;3.07;;;6.20;99.90;;;;;;4924111;29;20203;-78
2022/04/09 01:14:36;;;;;;;8.73;3.23;;;6.00;99.90;;;;;;4929937;29;20662;-79
2022/04/09 01:17:05;;;;;;;10.33;3.60;;;6.20;99.90;;;;;;4930271;29;20218;-78
2022/04/09 01:19:34;;;;;;;10.83;3.83;;;5.90;99.90;;;;;;4929150;29;20199;-78
2022/04/09 01:22:04;;;;;;;12.43;4.00;;;5.90;99.90;;;;;;4933109;29;20200;-79
2022/04/09 01:24:31;;;;;;;10.23;3.23;;;6.00;99.90;;;;;;4931731;29;20212;-78
2022/04/09 01:26:59;;;;;;;14.07;3.80;;;5.70;99.90;;;;;;4932999;29;20236;-78
2022/04/09 01:29:36;;;;;;;9.60;3.30;;;5.60;99.90;;;;;;4931236;29;20219;-78
2022/04/09 01:32:56;;;;;;;8.80;3.17;;;5.60;99.90;;;;;;4927640;29;20220;-79
2022/04/09 01:35:27;;;;;;;7.00;3.30;;;5.70;99.90;;;;;;4929888;29;20572;-78
2022/04/09 01:37:56;;;;;;;8.47;3.97;;;6.00;99.90;;;;;;4927032;29;20702;-78
2022/04/09 01:40:23;;;;;;;12.40;3.77;;;5.80;99.90;;;;;;4936288;29;20215;-79
2022/04/09 01:42:52;;;;;;;11.67;3.87;;;5.80;99.90;;;;;;4921535;29;20204;-79
2022/04/09 01:45:22;;;;;;;12.50;4.13;;;5.60;99.90;;;;;;4922915;29;20580;-79
2022/04/09 01:47:50;;;;;;;9.50;3.67;;;5.70;99.90;;;;;;4925017;29;20242;-79
2022/04/09 01:50:18;;;;;;;9.93;3.43;;;5.80;99.90;;;;;;4922722;29;20226;-79
2022/04/09 01:52:45;;;;;;;8.40;4.17;;;6.00;99.90;;;;;;4930174;29;20222;-79
2022/04/09 01:55:16;;;;;;;10.87;3.50;;;6.00;99.90;;;;;;4940986;28;20211;-79
2022/04/09 01:57:45;;;;;;;10.80;4.17;;;5.90;99.90;;;;;;4945803;29;20223;-78
2022/04/09 02:00:15;;;;;;;8.50;4.60;;;5.80;99.90;;;;;;4926250;29;20203;-79
2022/04/09 02:02:46;;;;;;;9.90;4.50;;;5.60;99.90;;;;;;4930435;28;20219;-78
2022/04/09 02:05:14;;;;;;;15.27;4.37;;;5.80;99.90;;;;;;4942990;28;20562;-79
2022/04/09 02:07:45;;;;;;;8.77;4.43;;;5.70;99.90;;;;;;4929420;29;20233;-78
2022/04/09 02:10:13;;;;;;;12.67;4.80;;;5.90;99.90;;;;;;4929092;29;20214;-79
2022/04/09 02:12:44;;;;;;;12.50;4.53;;;5.90;99.90;;;;;;4947499;29;20200;-79
2022/04/09 02:15:14;;;;;;;11.17;4.90;;;6.00;99.90;;;;;;4927632;29;20209;-78
2022/04/09 02:17:43;;;;;;;11.90;3.87;;;5.70;99.90;;;;;;4920926;29;20232;-78
2022/04/09 02:20:15;;;;;;;14.00;4.53;;;5.80;99.90;;;;;;4922943;29;20577;-78
2022/04/09 02:22:44;;;;;;;15.97;4.93;;;5.70;99.90;;;;;;4930576;29;20202;-79
2022/04/09 02:25:14;;;;;;;11.03;5.07;;;5.60;99.90;;;;;;4927060;29;20218;-79
2022/04/09 02:27:43;;;;;;;10.40;4.37;;;5.70;99.90;;;;;;4930716;29;20238;-78
2022/04/09 02:30:11;;;;;;;11.57;4.10;;;5.70;99.90;;;;;;4939735;29;20219;-79
2022/04/09 02:32:45;;;;;;;8.53;4.00;;;5.70;99.90;;;;;;4923183;29;20213;-79
2022/04/09 02:35:14;;;;;;;15.10;4.40;;;5.60;99.90;;;;;;4929812;29;20709;-78
2022/04/09 02:37:42;;;;;;;10.90;3.70;;;5.60;99.90;;;;;;4922276;29;20233;-78
2022/04/09 02:40:11;;;;;;;17.47;4.57;;;5.60;99.90;;;;;;4932713;29;20685;-80
2022/04/09 02:42:39;;;;;;;8.83;3.90;;;5.60;99.90;;;;;;4930188;29;20224;-78
2022/04/09 02:45:11;;;;;;;16.87;4.17;;;5.60;99.90;;;;;;4927935;29;20220;-79
2022/04/09 02:47:39;;;;;;;11.40;3.77;;;5.70;99.90;;;;;;4922940;29;20239;-78
2022/04/09 02:50:12;;;;;;;13.90;4.40;;;5.90;99.90;;;;;;4927455;29;20231;-78
2022/04/09 02:52:43;;;;;;;11.17;4.13;;;5.80;99.90;;;;;;4935273;29;20198;-79
2022/04/09 02:55:14;;;;;;;11.53;3.90;;;5.70;99.90;;;;;;4935269;29;20199;-78
2022/04/09 02:57:42;;;;;;;7.13;3.67;;;5.80;99.90;;;;;;4931614;29;20305;-78
2022/04/09 03:00:14;;;;;;;14.07;4.20;;;5.80;99.90;;;;;;4935458;29;20207;-78
2022/04/09 03:02:44;;;;;;;9.17;3.47;;;5.90;99.90;;;;;;4935991;29;20209;-79
2022/04/09 03:05:26;;;;;;;10.47;3.30;;;5.90;99.90;;;;;;4931720;29;20218;-79
2022/04/09 03:07:53;;;;;;;10.70;3.40;;;5.90;99.90;;;;;;4949557;28;20684;-78
2022/04/09 03:10:21;;;;;;;9.83;3.70;;;5.80;99.90;;;;;;4932143;29;20219;-78
2022/04/09 03:12:49;;;;;;;13.43;4.00;;;5.60;99.90;;;;;;4931280;29;20209;-78
2022/04/09 03:15:21;;;;;;;11.23;3.70;;;5.60;99.90;;;;;;4930944;29;20201;-79
2022/04/09 03:17:51;;;;;;;9.10;3.23;;;5.70;99.90;;;;;;4929436;29;20240;-79
2022/04/09 03:20:20;;;;;;;14.80;4.37;;;5.50;99.90;;;;;;4933223;29;20202;-80
2022/04/09 03:22:56;;;;;;;9.40;3.43;;;5.60;99.90;;;;;;4922278;29;20215;-78
2022/04/09 03:25:53;;;;;;;11.17;3.60;;;5.60;99.90;;;;;;4934887;29;20228;-78
2022/04/09 03:28:23;;;;;;;12.27;3.70;;;5.70;99.90;;;;;;4929405;29;20223;-78
2022/04/09 03:30:54;;;;;;;13.40;4.53;;;5.80;99.90;;;;;;4934421;29;20217;-78
2022/04/09 03:33:25;;;;;;;12.43;3.80;;;5.60;99.90;;;;;;4934615;29;20218;-78
2022/04/09 03:36:01;;;;;;;10.57;4.60;;;5.70;99.90;;;;;;4932778;29;20211;-78
2022/04/09 03:38:31;;;;;;;12.30;3.40;;;5.70;99.90;;;;;;4929071;29;20227;-79
2022/04/09 03:41:00;;;;;;;11.60;3.90;;;5.70;99.90;;;;;;4926265;29;20206;-78
2022/04/09 03:43:40;;;;;;;11.90;3.30;;;5.70;99.90;;;;;;4928697;29;20204;-79
2022/04/09 03:46:08;;;;;;;9.50;3.37;;;5.80;99.90;;;;;;4933998;29;20203;-78
2022/04/09 03:48:36;;;;;;;13.90;4.00;;;5.80;99.90;;;;;;4919460;28;20248;-79
2022/04/09 03:51:03;;;;;;;13.57;4.50;;;5.80;99.90;;;;;;4924550;29;20228;-78
2022/04/09 03:53:32;;;;;;;6.33;3.40;;;5.70;99.90;;;;;;4930428;29;20222;-78
2022/04/09 03:56:04;;;;;;;16.63;4.13;;;5.70;99.90;;;;;;4933577;29;20198;-79
2022/04/09 03:58:37;;;;;;;12.87;4.53;;;5.70;99.90;;;;;;4925422;29;20224;-78
2022/04/09 04:01:06;;;;;;;16.77;5.20;;;5.70;99.90;;;;;;4924579;29;20199;-74
2022/04/09 04:03:35;;;;;;;10.50;3.73;;;5.80;99.90;;;;;;4951229;29;20545;-75
2022/04/09 04:06:20;;;;;;;11.53;4.10;;;5.70;99.90;;;;;;4951273;29;20214;-75
2022/04/09 04:08:48;;;;;;;13.30;3.70;;;5.70;99.90;;;;;;4934194;29;20213;-73
2022/04/09 04:11:19;;;;;;;11.27;3.83;;;5.70;99.90;;;;;;4932302;29;20230;-75
2022/04/09 04:13:48;;;;;;;17.90;4.53;;;5.80;99.90;;;;;;4932025;29;20207;-74
2022/04/09 04:16:16;;;;;;;11.13;4.13;;;5.80;99.90;;;;;;4931569;29;20200;-75
2022/04/09 04:18:48;;;;;;;14.47;4.53;;;5.50;99.90;;;;;;4925708;29;20205;-78
2022/04/09 04:21:27;;;;;;;10.13;4.10;;;5.60;99.90;;;;;;4929741;29;20203;-74
2022/04/09 04:24:03;;;;;;;13.93;4.33;;;5.50;99.90;;;;;;4924182;29;20213;-73
2022/04/09 04:26:31;;;;;;;14.77;4.47;;;5.50;99.90;;;;;;4927527;29;20210;-74
2022/04/09 04:29:04;;;;;;;13.30;3.93;;;5.50;99.90;;;;;;4928106;29;20716;-74
2022/04/09 04:31:33;;;;;;;14.20;4.57;;;5.60;99.90;;;;;;4922528;29;20216;-74
2022/04/09 04:34:04;;;;;;;13.40;3.80;;;5.60;99.90;;;;;;4924286;29;20211;-75
2022/04/09 04:36:36;;;;;;;10.30;3.70;;;5.60;99.90;;;;;;4929908;29;20230;-74
2022/04/09 04:39:04;;;;;;;10.50;3.43;;;5.50;99.90;;;;;;4930601;29;20203;-74
2022/04/09 04:41:32;;;;;;;9.50;3.63;;;5.40;99.90;;;;;;4932959;29;20217;-74
2022/04/09 04:44:00;;;;;;;11.27;3.83;;;5.20;99.90;;;;;;4933456;29;20199;-73
2022/04/09 04:46:36;;;;;;;9.60;3.60;;;5.10;99.90;;;;;;4929830;29;20691;-74
2022/04/09 04:49:06;;;;;;;10.60;4.17;;;5.00;99.90;;;;;;4927863;29;20199;-74
2022/04/09 04:51:34;;;;;;;9.10;3.47;;;4.90;99.90;;;;;;4930590;29;20218;-73
2022/04/09 04:54:03;;;;;;;9.67;3.37;;;4.90;99.90;;;;;;4948319;29;20205;-73
2022/04/09 04:56:31;;;;;;;10.00;3.27;;;5.00;99.90;;;;;;4933474;29;20212;-75
2022/04/09 04:59:01;;;;;;;12.50;3.50;;;4.90;99.90;;;;;;4927736;29;20215;-74
2022/04/09 05:01:28;;;;;;;10.63;3.83;;;5.00;99.90;;;;;;4933227;29;20200;-75
2022/04/09 05:04:25;;;;;;;11.50;3.90;;;4.80;99.90;;;;;;4929627;29;20202;-76
2022/04/09 05:06:59;;;;;;;15.23;4.00;;;5.10;99.90;;;;;;4931211;29;20241;-75
2022/04/09 05:09:27;;;;;;;10.93;3.80;;;5.10;99.90;;;;;;4921818;29;20214;-74
2022/04/09 05:12:21;;;;;;;11.73;3.97;;;5.00;99.90;;;;;;4928391;29;20220;-72
2022/04/09 05:14:58;;;;;;;12.70;4.40;;;5.00;99.90;;;;;;4931724;29;20205;-73
2022/04/09 05:17:25;;;;;;;13.73;3.60;;;5.00;99.90;;;;;;4929963;29;20222;-74
2022/04/09 05:19:54;;;;;;;8.40;4.20;;;5.00;99.90;;;;;;4914289;29;20210;-74
2022/04/09 05:22:22;;;;;;;11.57;4.13;;;4.80;99.90;;;;;;4920772;29;20744;-74
2022/04/09 05:25:01;;;;;;;11.73;4.27;;;4.80;99.90;;;;;;4931411;29;20225;-73
2022/04/09 05:27:31;;;;;;;10.97;4.10;;;4.70;99.90;;;;;;4934390;29;20221;-74
2022/04/09 05:30:03;;;;;;;9.60;3.83;;;4.70;99.90;;;;;;4937083;29;20221;-74
2022/04/09 05:32:39;;;;;;;8.17;3.97;;;4.70;99.90;;;;;;4928937;29;20303;-74
2022/04/09 05:35:13;;;;;;;12.27;4.20;;;4.70;99.90;;;;;;4931545;29;20214;-73
2022/04/09 05:37:46;;;;;;;10.70;4.30;;;4.70;99.90;;;;;;4930522;29;20228;-75
2022/04/09 05:40:15;;;;;;;10.50;3.40;;;4.80;99.90;;;;;;4929385;29;20213;-74
2022/04/09 05:42:43;;;;;;;12.03;3.23;;;4.90;99.90;;;;;;4925828;29;20197;-74
2022/04/09 05:45:12;;;;;;;11.80;4.47;;;5.10;99.90;;;;;;4931577;29;20207;-73
2022/04/09 05:47:44;;;;;;;10.87;4.03;;;5.00;99.90;;;;;;4942342;28;20236;-74
2022/04/09 05:50:17;;;;;;;11.20;4.73;;;5.20;99.90;;;;;;4931919;29;20205;-74
2022/04/09 05:52:50;;;;;;;14.43;5.27;;;5.10;99.90;;;;;;4931825;29;20218;-74
2022/04/09 05:55:19;;;;;;;13.30;4.47;;;5.10;99.90;;;;;;4929754;29;20217;-73
2022/04/09 05:57:46;;;;;;;10.93;4.43;;;5.10;99.90;;;;;;4923121;29;20226;-73
2022/04/09 06:00:16;;;;;;;9.63;4.40;;;5.30;99.90;;;;;;4924981;29;20202;-77
2022/04/09 06:02:49;;;;;;;9.37;4.90;;;5.40;99.90;;;;;;4927747;29;20190;-73
2022/04/09 06:05:30;;;;;;;11.60;4.20;;;5.30;99.90;;;;;;4930593;29;20198;-73
2022/04/09 06:07:59;;;;;;;7.70;3.50;;;5.20;99.90;;;;;;4933104;29;20227;-73
2022/04/09 06:10:27;;;;;;;10.87;3.93;;;5.40;99.90;;;;;;4932166;29;20213;-73
2022/04/09 06:12:55;;;;;;;10.53;4.20;;;5.40;99.90;;;;;;4934445;29;20224;-73
2022/04/09 06:15:35;;;;;;;13.13;4.37;;;5.50;99.90;;;;;;4929455;29;20210;-73
2022/04/09 06:18:10;;;;;;;15.00;3.90;;;5.40;99.90;;;;;;4930117;29;20238;-73
2022/04/09 06:20:39;;;;;;;12.60;4.37;;;5.30;99.90;;;;;;4945923;29;20218;-75
2022/04/09 06:23:19;;;;;;;13.23;4.37;;;5.40;99.90;;;;;;4920931;28;20194;-73
2022/04/09 06:25:46;;;;;;;8.67;3.80;;;5.40;99.90;;;;;;4945192;28;20202;-73
2022/04/09 06:28:16;;;;;;;9.70;3.67;;;5.40;99.90;;;;;;4948096;29;20214;-74
2022/04/09 06:30:47;;;;;;;13.00;4.93;;;5.50;99.90;;;;;;4940146;28;20214;-73
2022/04/09 06:33:21;;;;;;;10.77;3.20;;;5.50;99.90;;;;;;4930041;29;20236;-73
2022/04/09 06:35:50;;;;;;;12.43;3.90;;;5.60;99.90;;;;;;4936198;29;20206;-73
2022/04/09 06:38:22;;;;;;;9.23;4.13;;;5.60;99.90;;;;;;4935626;29;20238;-73
2022/04/09 06:40:50;;;;;;;10.33;3.10;;;5.70;99.90;;;;;;4936439;29;20250;-73
2022/04/09 06:43:24;;;;;;;8.57;3.00;;;5.70;99.90;;;;;;4935947;29;20197;-74
2022/04/09 06:45:51;;;;;;;9.17;2.93;;;5.70;99.90;;;;;;4922994;29;20211;-73
2022/04/09 06:48:27;;;;;;;11.80;3.33;;;5.70;99.90;;;;;;4934436;29;20238;-73
2022/04/09 06:51:24;;;;;;;14.17;4.00;;;5.80;99.90;;;;;;4937188;29;20219;-74
2022/04/09 06:53:56;;;;;;;9.23;2.87;;;5.90;99.90;;;;;;4932477;29;20602;-74
2022/04/09 06:56:23;;;;;;;10.97;3.43;;;6.00;99.90;;;;;;4932505;29;20206;-73
2022/04/09 06:58:52;;;;;;;9.27;3.27;;;6.10;99.90;;;;;;4928314;29;20215;-75
2022/04/09 07:01:20;;;;;;;9.00;3.33;;;6.10;99.90;;;;;;4933485;29;20202;-74
2022/04/09 07:03:48;;;;;;;9.40;3.53;;;6.30;99.90;;;;;;4933292;29;20198;-74
2022/04/09 07:06:17;;;;;;;8.57;3.43;;;6.30;99.90;;;;;;4932302;29;20577;-73
2022/04/09 07:08:45;;;;;;;10.67;3.37;;;6.30;99.90;;;;;;4934146;29;20207;-75
2022/04/09 07:11:16;;;;;;;12.37;3.37;;;6.20;99.90;;;;;;4935218;29;20216;-73
2022/04/09 07:13:43;;;;;;;12.37;3.97;;;6.10;99.90;;;;;;4935841;29;20588;-73
2022/04/09 07:16:11;;;;;;;8.67;3.97;;;6.20;99.90;;;;;;4938612;29;20657;-74
2022/04/09 07:18:38;;;;;;;18.27;4.50;;;6.30;99.90;;;;;;4935350;29;20224;-73
2022/04/09 07:21:06;;;;;;;9.77;4.13;;;6.40;99.90;;;;;;4918777;29;20208;-73
2022/04/09 07:23:33;;;;;;;10.50;3.60;;;6.30;99.90;;;;;;4936470;29;20203;-73
2022/04/09 07:26:02;;;;;;;8.00;3.53;;;6.30;99.90;;;;;;4934865;29;20207;-74
2022/04/09 07:28:29;;;;;;;14.30;4.27;;;6.40;99.90;;;;;;4925590;29;20231;-73
2022/04/09 07:30:57;;;;;;;10.27;3.17;;;6.60;99.90;;;;;;4927833;29;20215;-75
2022/04/09 07:33:24;;;;;;;9.00;3.27;;;6.60;99.90;;;;;;4935189;29;20244;-73
2022/04/09 07:35:53;;;;;;;12.40;3.57;;;6.60;99.90;;;;;;4935414;29;20220;-73
2022/04/09 07:38:22;;;;;;;5.27;2.43;;;6.70;99.90;;;;;;4932652;29;20232;-73
2022/04/09 07:40:50;;;;;;;5.67;2.63;;;6.60;99.90;;;;;;4953901;29;20560;-74
2022/04/09 07:43:19;;;;;;;6.17;2.60;;;6.60;99.90;;;;;;4955159;29;20211;-76
2022/04/09 07:45:47;;;;;;;10.73;2.73;;;6.60;99.90;;;;;;4933824;29;20209;-74
2022/04/09 07:48:15;;;;;;;7.47;2.80;;;6.70;99.90;;;;;;4930813;29;20597;-73
2022/04/09 07:50:42;;;;;;;7.20;2.70;;;6.70;99.90;;;;;;4934084;29;20209;-73
2022/04/09 07:53:11;;;;;;;6.20;3.03;;;6.70;99.90;;;;;;4935885;29;20210;-76
2022/04/09 07:55:38;;;;;;;8.37;3.07;;;6.70;99.90;;;;;;4930176;29;20202;-73
2022/04/09 07:58:08;;;;;;;7.27;2.93;;;6.70;99.90;;;;;;4937961;29;20232;-73
2022/04/09 08:00:37;;;;;;;12.30;3.13;;;6.80;99.90;;;;;;4942780;29;20205;-73
2022/04/09 08:03:05;;;;;;;12.50;3.20;;;6.90;99.90;;;;;;4930653;29;20565;-73
2022/04/09 08:05:32;;;;;;;9.87;3.47;;;7.10;99.90;;;;;;4934236;29;20212;-74
2022/04/09 08:08:01;;;;;;;8.47;3.60;;;7.00;99.90;;;;;;4933908;29;20581;-75
2022/04/09 08:10:29;;;;;;;9.33;2.70;;;7.00;99.90;;;;;;4934230;29;20707;-75
2022/04/09 08:12:59;;;;;;;6.37;2.60;;;6.80;99.90;;;;;;4923166;29;20260;-73
2022/04/09 08:15:27;;;;;;;10.30;3.67;;;6.70;99.90;;;;;;4928050;29;20205;-75
2022/04/09 08:17:59;;;;;;;5.83;3.10;;;6.90;99.90;;;;;;4930319;29;20238;-74
2022/04/09 08:20:27;;;;;;;10.33;3.80;;;6.90;99.90;;;;;;4932797;29;20208;-75
2022/04/09 08:23:08;;;;;;;10.73;3.00;;;6.90;99.90;;;;;;4926684;29;20204;-75
2022/04/09 08:25:39;;;;;;;7.27;2.87;;;7.10;99.90;;;;;;4927121;29;20210;-74
2022/04/09 08:28:06;;;;;;;6.47;3.27;;;7.20;99.90;;;;;;4924132;29;20224;-74
2022/04/09 08:30:34;;;;;;;10.50;3.20;;;7.30;99.90;;;;;;4932483;29;20221;-76
2022/04/09 08:33:05;;;;;;;10.37;2.93;;;7.20;99.90;;;;;;4932733;29;20228;-76
2022/04/09 08:35:32;;;;;;;9.17;3.37;;;7.10;99.90;;;;;;4927874;29;20740;-76
2022/04/09 08:38:01;;;;;;;9.13;4.03;;;7.00;99.90;;;;;;4947469;28;20234;-76
2022/04/09 08:40:28;;;;;;;11.57;4.10;;;7.10;99.90;;;;;;4933641;29;20201;-77
2022/04/09 08:42:56;;;;;;;8.57;4.10;;;7.00;99.90;;;;;;4934177;29;20194;-75
2022/04/09 08:45:24;;;;;;;6.67;3.80;;;7.40;99.90;;;;;;4933105;29;20205;-74
2022/04/09 08:47:51;;;;;;;8.03;3.90;;;7.20;99.90;;;;;;4932015;29;20247;-75
2022/04/09 08:50:21;;;;;;;8.87;3.70;;;7.10;99.90;;;;;;4930406;29;20224;-74
2022/04/09 08:52:48;;;;;;;9.33;4.23;;;7.20;99.90;;;;;;4938774;29;20193;-74
2022/04/09 08:55:16;;;;;;;11.00;3.83;;;7.30;99.90;;;;;;4932582;29;20209;-75
2022/04/09 08:57:45;;;;;;;8.60;4.03;;;7.40;99.90;;;;;;4931878;29;20224;-73
2022/04/09 09:00:17;;;;;;;8.60;3.50;;;7.40;99.90;;;;;;4928977;29;20546;-74
2022/04/09 09:02:51;;;;;;;4.60;2.90;;;7.40;99.90;;;;;;4927855;29;20217;-74
2022/04/09 09:05:31;;;;;;;10.07;3.57;;;7.50;99.90;;;;;;4944321;29;20212;-74
2022/04/09 09:07:59;;;;;;;7.27;3.13;;;7.50;99.90;;;;;;4926810;29;20244;-74
2022/04/09 09:10:26;;;;;;;8.30;3.47;;;7.50;99.90;;;;;;4927868;29;20201;-74
2022/04/09 09:13:20;;;;;;;6.77;3.00;;;7.70;99.90;;;;;;4933453;29;20240;-74
2022/04/09 09:15:51;;;;;;;5.63;3.20;;;7.70;99.90;;;;;;4933526;29;20184;-78
2022/04/09 09:18:21;;;;;;;6.77;3.00;;;7.80;99.90;;;;;;4933151;29;20699;-77
2022/04/09 09:20:54;;;;;;;9.60;2.87;;;7.80;99.90;;;;;;4952746;29;20189;-74
2022/04/09 09:23:23;;;;;;;6.70;3.60;;;7.90;99.90;;;;;;4933418;28;20206;-74
2022/04/09 09:25:51;;;;;;;8.47;2.87;;;8.00;99.90;;;;;;4931573;29;20213;-74
2022/04/09 09:28:26;;;;;;;8.33;3.27;;;7.90;99.90;;;;;;4931095;29;20218;-74
2022/04/09 09:30:55;;;;;;;6.40;2.30;;;8.00;99.90;;;;;;4932069;29;20209;-73
2022/04/09 09:33:37;;;;;;;8.37;2.67;;;8.10;99.90;;;;;;4932883;29;20220;-74
2022/04/09 09:36:06;;;;;;;8.50;2.10;;;8.20;99.90;;;;;;4931808;29;20573;-74
2022/04/09 09:38:34;;;;;;;4.63;1.53;;;8.00;99.90;;;;;;4929976;29;20222;-76
2022/04/09 09:41:23;;;;;;;5.13;1.90;;;7.90;99.90;;;;;;4934767;29;20664;-74
2022/04/09 09:44:02;;;;;;;2.63;1.10;;;7.80;99.90;;;;;;4933929;29;20197;-75
2022/04/09 09:46:39;;;;;;;2.00;0.93;;;7.00;99.90;;;;;;4938389;29;20207;-74
2022/04/09 09:49:06;;;;;;;2.77;0.80;;;6.40;99.90;;;;;;4935446;29;20212;-74
2022/04/09 09:52:01;;;;;;;1.33;1.00;;;5.90;99.90;;;;;;4935110;29;20215;-73
2022/04/09 09:54:29;;;;;;;1.90;0.90;;;5.80;99.90;;;;;;4932049;29;20207;-74
2022/04/09 09:56:56;;;;;;;3.83;2.23;;;5.80;99.90;;;;;;4932357;29;20233;-74
2022/04/09 09:59:30;;;;;;;1.83;1.10;;;5.90;99.90;;;;;;4922110;29;20219;-75
2022/04/09 10:02:20;;;;;;;3.07;1.40;;;5.90;99.90;;;;;;4934677;29;20209;-75
2022/04/09 10:04:48;;;;;;;4.47;1.50;;;5.90;99.90;;;;;;4936147;28;20213;-74
2022/04/09 10:07:16;;;;;;;2.53;1.53;;;6.00;99.90;;;;;;4933025;29;20233;-74
2022/04/09 10:09:45;;;;;;;3.73;1.43;;;6.40;99.90;;;;;;4935610;29;20207;-74
2022/04/09 10:12:13;;;;;;;2.03;1.50;;;6.60;99.90;;;;;;4931552;29;20204;-74
2022/04/09 10:14:42;;;;;;;2.83;1.33;;;7.00;99.90;;;;;;4931518;29;20217;-73
2022/04/09 10:17:11;;;;;;;2.23;1.40;;;6.90;99.90;;;;;;4934705;29;20221;-74
2022/04/09 10:19:42;;;;;;;4.40;1.80;;;7.10;99.90;;;;;;4931552;29;20211;-74
2022/04/09 10:22:11;;;;;;;3.23;1.70;;;8.30;99.90;;;;;;4943424;29;20208;-75
2022/04/09 10:24:41;;;;;;;2.60;1.40;;;8.20;99.90;;;;;;4916223;29;20213;-74
2022/04/09 10:27:08;;;;;;;2.80;1.67;;;8.30;99.90;;;;;;4931010;29;20228;-77
2022/04/09 10:29:49;;;;;;;3.77;1.93;;;8.50;99.90;;;;;;4938344;29;20217;-74
2022/04/09 10:32:51;;;;;;;6.53;2.60;;;8.20;99.90;;;;;;4920269;29;20605;-75
2022/04/09 10:35:26;;;;;;;4.03;2.30;;;8.40;99.90;;;;;;4927054;29;20245;-73
2022/04/09 10:38:23;;;;;;;5.53;2.10;;;8.20;99.90;;;;;;4931338;29;20230;-74
2022/04/09 10:41:27;;;;;;;3.37;1.50;;;8.50;99.90;;;;;;4923159;29;20565;-78
2022/04/09 10:43:58;;;;;;;5.37;2.00;;;8.30;99.90;;;;;;4929322;29;20716;-75
2022/04/09 10:46:34;;;;;;;4.87;2.03;;;8.60;99.90;;;;;;4929970;29;20214;-74
2022/04/09 10:49:19;;;;;;;4.43;1.73;;;8.40;98.60;;;;;;4932812;29;20203;-75
2022/04/09 10:52:11;;;;;;;6.63;1.90;;;8.50;99.40;;;;;;4928605;29;20209;-74
2022/04/09 10:54:41;;;;;;;2.37;0.80;;;8.80;99.90;;;;;;4927416;29;20218;-79
2022/04/09 10:57:11;;;;;;;1.43;0.60;;;8.40;99.90;;;;;;4930370;29;20245;-74
2022/04/09 10:59:39;;;;;;;1.37;0.40;;;8.00;99.90;;;;;;4929136;29;20207;-74
2022/04/09 11:02:06;;;;;;;1.17;0.43;;;7.20;99.90;;;;;;4932263;29;20209;-74
2022/04/09 11:04:41;;;;;;;0.60;0.50;;;7.20;99.90;;;;;;4933069;29;20564;-74
2022/04/09 11:07:11;;;;;;;0.70;0.50;;;7.10;99.90;;;;;;4936539;29;20596;-76
2022/04/09 11:09:48;;;;;;;2.73;0.80;;;7.20;99.90;;;;;;4929491;29;20225;-74
2022/04/09 11:12:20;;;;;;;1.73;0.67;;;7.30;99.90;;;;;;4930753;29;20216;-76
2022/04/09 11:14:50;;;;;;;1.57;0.70;;;7.30;99.90;;;;;;4934854;29;20213;-76
2022/04/09 11:17:28;;;;;;;2.67;1.10;;;7.50;99.90;;;;;;4931692;29;20225;-76
2022/04/09 11:20:10;;;;;;;2.07;1.57;;;7.70;99.90;;;;;;4933045;29;20209;-77
2022/04/09 11:22:43;;;;;;;0.73;0.60;;;7.30;99.90;;;;;;4933710;29;20202;-74
2022/04/09 11:25:29;;;;;;;1.60;0.80;;;6.60;99.90;;;;;;4932208;29;20194;-74
2022/04/09 11:28:10;;;;;;;1.93;1.00;;;6.30;99.90;;;;;;4932510;29;20224;-75
2022/04/09 11:31:02;;;;;;;1.87;0.80;;;5.90;99.90;;;;;;4928026;29;20210;-75
2022/04/09 11:33:57;;;;;;;2.53;0.90;;;5.40;99.90;;;;;;4931381;29;20538;-74
2022/04/09 11:36:25;;;;;;;3.53;1.07;;;5.00;99.90;;;;;;4942094;29;20686;-75
2022/04/09 11:38:52;;;;;;;2.03;0.80;;;4.90;99.90;;;;;;4925162;29;20212;-74
2022/04/09 11:41:20;;;;;;;4.80;0.90;;;4.70;99.90;;;;;;4923882;29;20194;-75
2022/04/09 11:43:50;;;;;;;1.77;0.70;;;4.80;99.90;;;;;;4927708;29;20211;-74
2022/04/09 11:46:18;;;;;;;1.87;0.70;;;4.70;99.90;;;;;;4924338;29;20471;-76
2022/04/09 11:48:49;;;;;;;2.83;0.87;;;4.80;99.90;;;;;;4926414;29;20252;-74
2022/04/09 11:51:20;;;;;;;2.10;0.90;;;5.10;99.90;;;;;;4929157;29;20202;-74
2022/04/09 11:53:47;;;;;;;3.50;0.90;;;5.30;99.90;;;;;;4930621;29;20193;-75
2022/04/09 11:56:15;;;;;;;3.10;1.33;;;5.60;99.90;;;;;;4932956;29;20213;-75
2022/04/09 11:58:44;;;;;;;2.50;1.23;;;6.00;99.90;;;;;;4925597;29;20240;-75
2022/04/09 12:01:20;;;;;;;4.17;1.20;;;6.30;99.90;;;;;;4927965;29;20205;-74
2022/04/09 12:03:52;;;;;;;3.73;1.50;;;6.80;99.90;;;;;;4924672;29;20211;-75
2022/04/09 12:06:20;;;;;;;2.60;1.50;;;7.30;99.90;;;;;;4926812;29;20207;-76
2022/04/09 12:08:47;;;;;;;3.47;1.93;;;7.40;99.90;;;;;;4927495;29;20214;-75
2022/04/09 12:11:16;;;;;;;2.90;1.33;;;7.60;99.90;;;;;;4928538;29;20204;-74
2022/04/09 12:13:45;;;;;;;3.17;1.50;;;7.90;99.90;;;;;;4928895;29;20205;-77
2022/04/09 12:16:20;;;;;;;2.77;1.20;;;8.10;99.90;;;;;;4925335;29;20232;-75
2022/04/09 12:18:48;;;;;;;2.87;1.33;;;8.10;99.90;;;;;;4921735;29;20216;-75
2022/04/09 12:21:20;;;;;;;1.73;1.30;;;8.60;99.90;;;;;;4926678;29;20201;-75
2022/04/09 12:24:00;;;;;;;1.50;1.10;;;8.90;99.90;;;;;;4925719;29;20209;-75
2022/04/09 12:26:28;;;;;;;2.57;1.00;;;9.00;99.90;;;;;;4924245;29;20570;-75
2022/04/09 12:29:07;;;;;;;1.37;0.80;;;8.70;99.70;;;;;;4924824;29;20199;-75
2022/04/09 12:31:36;;;;;;;0.80;0.63;;;9.00;99.20;;;;;;4924944;29;20213;-75
2022/04/09 12:34:04;;;;;;;3.13;0.77;;;9.20;96.20;;;;;;4925067;29;20214;-75
2022/04/09 12:36:32;;;;;;;1.73;0.63;;;9.40;96.30;;;;;;4924229;29;20624;-74
2022/04/09 12:39:00;;;;;;;2.27;0.90;;;9.60;95.40;;;;;;4924953;29;20202;-77
2022/04/09 12:41:44;;;;;;;1.53;0.80;;;10.20;95.50;;;;;;4921580;29;20199;-77
2022/04/09 12:44:28;;;;;;;2.17;0.93;;;10.20;93.20;;;;;;4923039;29;20562;-76
2022/04/09 12:46:57;;;;;;;2.77;0.80;;;10.40;92.40;;;;;;4924976;29;20222;-74
2022/04/09 12:49:28;;;;;;;2.47;0.87;;;10.60;91.80;;;;;;4924754;29;20214;-75
2022/04/09 12:51:56;;;;;;;1.27;0.70;;;10.80;91.40;;;;;;4939831;28;20699;-75
2022/04/09 12:54:23;;;;;;;3.43;1.10;;;10.60;90.50;;;;;;4921664;29;20206;-74
2022/04/09 12:56:51;;;;;;;2.73;1.07;;;10.20;89.90;;;;;;4925016;29;20247;-74
2022/04/09 12:59:18;;;;;;;1.37;0.90;;;9.90;90.00;;;;;;4929983;29;20199;-76
2022/04/09 13:01:47;;;;;;;2.60;1.07;;;10.00;88.10;;;;;;4971240;23;20235;-78
2022/04/09 13:04:15;;;;;;;2.83;1.13;;;10.40;88.40;;;;;;4983098;28;20205;-78
2022/04/09 13:06:43;;;;;;;3.27;1.30;;;10.20;84.50;;;;;;4995995;28;20311;-79
2022/04/09 13:09:10;;;;;;;2.83;1.50;;;9.80;84.20;;;;;;4980835;28;20215;-80
2022/04/09 13:11:38;;;;;;;2.80;1.40;;;10.00;85.20;;;;;;4991444;28;20236;-79
2022/04/09 13:14:06;;;;;;;2.90;1.40;;;10.30;84.60;;;;;;4983350;28;20196;-79
2022/04/09 13:16:33;;;;;;;4.97;1.53;;;9.90;87.20;;;;;;4993152;28;20221;-79